Time;durP1;ratioP1;P1;durP2;ratioP2;P2;SDS_P1;SDS_P2;PMS_P1;PMS_P2;Temp;Humidity;BMP_temperature;BMP_pressure;BME280_temperature;BME280_humidity;BME280_pressure;Samples;Min_cycle;Max_cycle;Signal;HPM_P1;HPM_P2
2021/12/12 00:00:52;;;;;;;11.05;7.28;;;11.50;99.90;;;11.01;100.00;101959.09;4118875;28;20031;-73
2021/12/12 00:04:58;;;;;;;11.50;6.75;;;11.60;99.90;;;10.91;100.00;101963.44;4104088;28;20050;-73
2021/12/12 00:07:10;;;;;;;8.45;6.03;;;11.60;99.90;;;10.94;100.00;101960.56;4103766;28;20095;-73
2021/12/12 00:09:37;;;;;;;8.75;6.32;;;11.60;99.90;;;10.91;100.00;101959.97;4106325;28;20482;-73
2021/12/12 00:11:39;;;;;;;13.95;7.57;;;11.50;99.90;;;10.91;100.00;101965.25;4118461;28;20090;-73
2021/12/12 00:13:53;;;;;;;13.15;7.05;;;11.60;99.90;;;10.90;100.00;101966.22;4103929;28;20038;-73
2021/12/12 00:15:55;;;;;;;14.20;7.13;;;11.50;99.90;;;10.94;100.00;101960.56;4104116;28;20410;-73
2021/12/12 00:17:56;;;;;;;15.15;7.18;;;11.60;99.90;;;10.95;100.00;101956.13;4118741;28;20114;-73
2021/12/12 00:19:57;;;;;;;15.63;7.97;;;11.60;99.90;;;10.97;100.00;101956.81;4103984;28;20027;-73
2021/12/12 00:22:03;;;;;;;16.48;8.07;;;11.60;99.90;;;10.98;100.00;101942.66;4118325;28;20022;-73
2021/12/12 00:24:08;;;;;;;15.00;7.78;;;11.60;99.90;;;11.03;100.00;101954.50;4103933;28;20059;-73
2021/12/12 00:26:10;;;;;;;12.15;9.13;;;11.60;99.90;;;10.98;100.00;101947.94;4118554;28;20070;-73
2021/12/12 00:28:15;;;;;;;19.23;9.25;;;11.60;99.90;;;11.00;100.00;101949.47;4100971;29;20031;-73
2021/12/12 00:30:17;;;;;;;18.88;9.63;;;11.60;99.90;;;11.06;100.00;101950.75;4118482;28;20449;-73
2021/12/12 00:32:24;;;;;;;14.32;8.40;;;11.60;99.90;;;11.15;100.00;101949.97;4118738;28;20168;-73
2021/12/12 00:34:31;;;;;;;21.75;7.97;;;11.70;99.90;;;11.04;100.00;101953.53;4118257;28;20042;-73
2021/12/12 00:36:34;;;;;;;17.70;8.57;;;11.60;99.90;;;10.96;100.00;101952.53;4118330;28;20461;-73
2021/12/12 00:38:36;;;;;;;23.80;9.60;;;11.60;99.90;;;10.95;100.00;101943.75;4118278;28;20399;-73
2021/12/12 00:40:43;;;;;;;10.43;7.47;;;11.60;99.90;;;10.95;100.00;101946.41;4118577;28;20025;-73
2021/12/12 00:42:46;;;;;;;20.38;8.30;;;11.60;99.90;;;10.97;100.00;101955.00;4103737;28;20023;-73
2021/12/12 00:44:55;;;;;;;21.20;8.50;;;11.60;99.90;;;11.03;100.00;101956.31;4118515;28;20026;-73
2021/12/12 00:47:01;;;;;;;12.32;6.18;;;11.60;99.90;;;11.03;100.00;101962.41;4118450;28;20775;-73
2021/12/12 00:49:03;;;;;;;10.52;6.30;;;11.70;99.90;;;11.08;100.00;101964.66;4118507;28;20406;-73
2021/12/12 00:51:08;;;;;;;12.57;6.55;;;11.60;99.90;;;11.00;100.00;101956.56;4118424;28;20031;-73
2021/12/12 00:53:11;;;;;;;11.48;6.68;;;11.70;99.90;;;10.97;100.00;101956.81;4118173;28;20097;-73
2021/12/12 00:55:13;;;;;;;11.07;7.05;;;11.70;99.90;;;10.98;100.00;101959.34;4118472;28;20027;-73
2021/12/12 00:57:18;;;;;;;15.45;7.85;;;11.60;99.90;;;11.00;100.00;101957.41;4118424;28;20035;-73
2021/12/12 00:59:19;;;;;;;27.33;8.40;;;11.60;99.90;;;10.96;100.00;101961.25;4103433;28;20050;-73
2021/12/12 01:01:33;;;;;;;9.70;6.75;;;11.60;99.90;;;11.01;100.00;101961.72;4118454;28;20022;-73
2021/12/12 01:03:47;;;;;;;18.57;9.77;;;11.70;99.90;;;11.11;100.00;101959.97;4103690;28;20082;-73
2021/12/12 01:05:50;;;;;;;14.23;7.33;;;11.70;99.90;;;11.00;100.00;101965.31;4117196;28;20306;-73
2021/12/12 01:07:52;;;;;;;18.60;8.90;;;11.70;99.90;;;10.97;100.00;101957.66;4117889;28;20270;-73
2021/12/12 01:10:30;;;;;;;19.98;7.85;;;11.60;99.90;;;11.00;100.00;101967.13;4134399;28;20026;-73
2021/12/12 01:12:33;;;;;;;14.50;6.78;;;11.70;99.90;;;11.07;100.00;101963.84;4103612;28;20106;-73
2021/12/12 01:14:41;;;;;;;16.10;7.03;;;11.60;99.90;;;11.06;100.00;101964.81;4106068;28;20023;-73
2021/12/12 01:16:54;;;;;;;13.43;8.50;;;11.70;99.90;;;10.98;100.00;101961.97;4121198;28;20026;-73
2021/12/12 01:19:20;;;;;;;16.83;9.00;;;11.70;99.90;;;10.98;100.00;101958.50;4106560;28;20043;-73
2021/12/12 01:21:31;;;;;;;14.75;7.32;;;11.70;99.90;;;10.96;100.00;101955.97;4120728;28;20015;-73
2021/12/12 01:23:47;;;;;;;12.60;6.25;;;11.60;99.90;;;10.94;100.00;101957.91;4120559;28;20027;-73
2021/12/12 01:25:53;;;;;;;22.08;11.80;;;11.60;99.90;;;11.02;100.00;101966.03;4121200;28;20033;-73
2021/12/12 01:27:55;;;;;;;15.25;6.32;;;11.60;99.90;;;10.99;100.00;101971.56;4130733;28;20041;-73
2021/12/12 01:29:56;;;;;;;15.93;7.20;;;11.70;99.90;;;11.02;100.00;101966.03;4106352;28;20027;-73
2021/12/12 01:32:00;;;;;;;20.40;10.85;;;11.70;99.90;;;11.03;100.00;101977.41;4105279;29;20054;-73
2021/12/12 01:34:12;;;;;;;;;;;11.70;99.90;;;11.00;100.00;101973.25;4121422;28;20037;-73
2021/12/12 01:36:29;;;;;;;18.75;9.63;;;11.60;99.90;;;11.02;100.00;101979.22;4106344;28;20050;-73
2021/12/12 01:40:55;;;;;;;13.95;7.85;;;11.70;99.90;;;10.96;100.00;101977.09;4106253;29;20034;-73
2021/12/12 01:43:02;;;;;;;14.25;8.07;;;11.60;99.90;;;11.00;100.00;101983.81;4106144;29;20030;-73
2021/12/12 01:45:30;;;;;;;14.27;7.50;;;11.60;99.90;;;11.04;100.00;101981.75;4106213;28;20035;-73
2021/12/12 01:47:41;;;;;;;18.35;9.85;;;11.70;99.90;;;10.96;100.00;101977.09;4106104;28;20031;-73
2021/12/12 01:49:53;;;;;;;16.98;8.70;;;11.60;99.90;;;11.02;100.00;101986.31;4106011;28;20055;-73
2021/12/12 01:51:56;;;;;;;24.10;9.57;;;11.60;99.90;;;11.03;100.00;101986.19;4105952;28;20035;-73
2021/12/12 01:54:04;;;;;;;15.55;5.70;;;11.70;99.90;;;10.99;100.00;101989.22;4104847;28;20027;-73
2021/12/12 01:56:19;;;;;;;20.38;5.55;;;11.70;99.90;;;11.13;100.00;101993.34;4105960;28;20122;-73
2021/12/12 01:58:25;;;;;;;20.05;5.97;;;11.70;99.90;;;10.93;100.00;101990.53;4106003;28;20031;-73
2021/12/12 02:00:34;;;;;;;15.30;5.47;;;11.70;99.90;;;10.91;100.00;101991.66;4120762;28;20109;-73
2021/12/12 02:02:35;;;;;;;15.82;6.90;;;11.70;99.90;;;10.96;100.00;101990.28;4120501;28;20081;-73
2021/12/12 02:04:49;;;;;;;17.08;5.53;;;11.70;99.90;;;10.98;100.00;101998.09;4104673;29;20083;-73
2021/12/12 02:06:52;;;;;;;21.85;6.22;;;11.60;99.90;;;11.06;100.00;101985.94;4105734;28;20039;-73
2021/12/12 02:08:55;;;;;;;13.80;5.70;;;11.70;99.90;;;11.00;100.00;101988.25;4120585;28;20034;-73
2021/12/12 02:11:09;;;;;;;13.13;5.45;;;11.70;99.90;;;11.15;100.00;101991.41;4120733;28;20113;-73
2021/12/12 02:13:15;;;;;;;14.85;5.40;;;11.70;99.90;;;11.04;100.00;101990.50;4105858;28;20066;-73
2021/12/12 02:15:18;;;;;;;13.95;5.78;;;11.70;99.90;;;11.17;100.00;101997.41;4120379;28;20039;-73
2021/12/12 02:17:35;;;;;;;11.20;5.10;;;11.70;99.90;;;11.07;100.00;101994.69;4105780;28;20034;-73
2021/12/12 02:20:28;;;;;;;23.35;6.22;;;11.70;99.90;;;11.12;100.00;102003.06;4119717;28;20544;-73
2021/12/12 02:22:52;;;;;;;17.85;7.70;;;11.70;99.90;;;11.05;100.00;102002.72;4113847;28;20122;-73
2021/12/12 02:35:07;;;;;;;16.38;5.97;;;11.70;99.90;;;11.21;100.00;102001.44;4114427;28;20046;-73
2021/12/12 02:36:22;;;;;;;23.65;7.75;;;11.80;99.90;;;11.10;100.00;102010.28;4118074;28;20070;-73
2021/12/12 02:38:33;;;;;;;19.23;7.70;;;11.80;99.90;;;11.12;100.00;102005.69;4119954;28;20023;-73
2021/12/12 02:40:49;;;;;;;18.88;6.50;;;11.70;99.90;;;11.08;100.00;102007.75;4105446;28;20027;-73
2021/12/12 02:42:50;;;;;;;18.52;5.45;;;11.90;99.90;;;11.15;100.00;102009.88;4119546;28;20123;-73
2021/12/12 02:44:57;;;;;;;22.52;6.47;;;11.80;99.90;;;11.05;100.00;102002.72;4120250;28;20030;-73
2021/12/12 02:47:09;;;;;;;26.05;6.28;;;11.80;99.90;;;11.00;100.00;102004.09;4120021;28;20027;-73
2021/12/12 02:51:39;;;;;;;14.68;5.68;;;11.70;99.90;;;11.22;100.00;102003.97;4120074;28;20092;-73
2021/12/12 02:53:47;;;;;;;16.58;6.60;;;11.70;99.90;;;11.27;100.00;101995.66;4119680;28;20113;-73
2021/12/12 02:55:54;;;;;;;15.15;6.20;;;11.80;99.90;;;11.21;100.00;102004.94;4119702;28;20186;-73
2021/12/12 02:57:58;;;;;;;23.08;7.15;;;11.80;99.90;;;11.30;100.00;102011.22;4119795;28;20079;-73
2021/12/12 02:59:59;;;;;;;15.07;7.88;;;11.80;99.90;;;11.25;100.00;102000.22;4135947;28;20026;-73
2021/12/12 03:02:12;;;;;;;25.80;7.75;;;11.90;99.90;;;11.18;100.00;102002.53;4119763;28;20569;-73
2021/12/12 03:04:13;;;;;;;15.77;5.95;;;11.80;99.90;;;11.19;100.00;102013.94;4104863;28;20399;-73
2021/12/12 03:06:30;;;;;;;20.58;7.55;;;11.80;99.90;;;11.22;100.00;102006.63;4119963;28;20030;-73
2021/12/12 03:08:32;;;;;;;15.85;6.57;;;11.80;99.90;;;11.21;100.00;102006.72;4119318;28;20541;-73
2021/12/12 03:10:39;;;;;;;17.38;6.63;;;11.80;99.90;;;11.20;100.00;102005.06;4103578;28;20479;-73
2021/12/12 03:12:41;;;;;;;19.30;6.50;;;11.90;99.90;;;11.12;100.00;101989.84;4103831;29;20035;-73
2021/12/12 03:14:44;;;;;;;18.83;6.55;;;11.80;99.90;;;11.05;100.00;101997.44;4104944;28;20035;-73
2021/12/12 03:16:48;;;;;;;23.88;7.68;;;11.80;99.90;;;11.12;100.00;101995.13;4119539;28;20053;-73
2021/12/12 03:18:49;;;;;;;27.23;7.33;;;11.70;99.90;;;11.01;100.00;101996.06;4119501;28;20039;-73
2021/12/12 03:20:56;;;;;;;18.13;6.03;;;11.80;99.90;;;11.06;100.00;101995.66;4104919;28;20271;-73
2021/12/12 03:23:17;;;;;;;20.75;5.97;;;11.70;99.90;;;11.10;100.00;102003.19;4118901;28;20090;-73
2021/12/12 03:25:19;;;;;;;27.33;6.53;;;11.70;99.90;;;11.02;100.00;102002.16;4103468;28;20114;-73
2021/12/12 03:27:21;;;;;;;18.15;6.05;;;11.70;99.90;;;11.07;100.00;102006.09;4104805;28;20050;-73
2021/12/12 03:29:24;;;;;;;19.38;5.55;;;11.70;99.90;;;11.10;100.00;101997.91;4104739;28;20038;-73
2021/12/12 03:31:36;;;;;;;17.65;7.03;;;11.70;99.90;;;11.18;100.00;102013.09;4104474;28;20038;-73
2021/12/12 03:33:38;;;;;;;17.55;6.80;;;11.70;99.90;;;11.10;100.00;102003.19;4104707;28;20063;-73
2021/12/12 03:35:39;;;;;;;21.15;6.07;;;11.70;99.90;;;11.16;100.00;102011.56;4103321;28;20114;-73
2021/12/12 03:37:42;;;;;;;21.27;7.22;;;11.80;99.90;;;11.09;100.00;102011.25;4099632;29;20125;-73
2021/12/12 03:39:48;;;;;;;14.93;6.65;;;11.70;99.90;;;11.18;100.00;102002.53;4119155;28;20030;-73
2021/12/12 03:41:51;;;;;;;19.58;6.65;;;11.70;99.90;;;11.13;100.00;102010.03;4119220;28;20093;-73
2021/12/12 03:43:59;;;;;;;22.63;6.38;;;11.80;99.90;;;11.06;100.00;102004.41;4119235;28;20031;-73
2021/12/12 03:46:05;;;;;;;16.73;5.68;;;11.80;99.90;;;11.08;100.00;102025.41;4104286;28;20031;-73
2021/12/12 03:48:17;;;;;;;19.58;6.78;;;11.70;99.90;;;11.18;100.00;102013.09;4118876;28;20158;-73
2021/12/12 03:50:28;;;;;;;21.13;5.90;;;11.80;99.90;;;11.18;100.00;102010.47;4118378;28;20027;-73
2021/12/12 03:52:29;;;;;;;25.98;7.45;;;11.80;99.90;;;11.17;100.00;102015.91;4118216;28;20426;-73
2021/12/12 03:54:30;;;;;;;18.20;5.97;;;11.80;99.90;;;11.15;100.00;101999.31;4119404;28;20041;-73
2021/12/12 03:56:32;;;;;;;23.67;6.65;;;11.80;99.90;;;11.07;100.00;102005.25;4104322;29;20514;-73
2021/12/12 03:58:33;;;;;;;15.38;5.13;;;11.70;99.90;;;11.04;100.00;102014.28;4104204;28;20044;-73
2021/12/12 04:00:41;;;;;;;17.35;5.22;;;11.70;99.90;;;11.06;100.00;102014.97;4118985;28;20517;-73
2021/12/12 04:02:43;;;;;;;19.33;6.00;;;11.70;99.90;;;11.15;100.00;102012.53;4104095;29;20392;-73
2021/12/12 04:04:46;;;;;;;21.77;5.60;;;11.80;99.90;;;11.18;100.00;102015.75;4118934;28;20070;-73
2021/12/12 04:06:49;;;;;;;10.93;4.78;;;11.80;99.90;;;11.08;100.00;102018.31;4118630;28;20035;-73
2021/12/12 04:08:52;;;;;;;14.50;4.40;;;11.80;99.90;;;11.10;100.00;102018.19;4103956;29;20035;-73
2021/12/12 04:10:53;;;;;;;22.00;5.53;;;11.70;99.90;;;11.19;100.00;102020.06;4118856;28;20868;-73
2021/12/12 04:12:55;;;;;;;15.95;5.15;;;11.80;99.90;;;11.15;100.00;102028.38;4118803;28;20027;-73
2021/12/12 04:14:57;;;;;;;25.35;5.72;;;11.70;99.90;;;11.15;100.00;102017.81;4103931;28;20023;-73
2021/12/12 04:17:03;;;;;;;19.88;4.55;;;11.80;99.90;;;11.06;100.00;102025.53;4118659;28;20031;-72
2021/12/12 04:19:05;;;;;;;14.10;5.28;;;11.80;99.90;;;11.13;100.00;102019.75;4103943;28;20529;-72
2021/12/12 04:21:07;;;;;;;22.45;5.22;;;11.70;99.90;;;11.13;100.00;102017.09;4118624;28;20023;-72
2021/12/12 04:23:19;;;;;;;9.30;3.40;;;11.70;99.90;;;11.04;100.00;102018.72;4103648;28;20034;-72
2021/12/12 04:25:21;;;;;;;15.52;3.95;;;11.80;99.90;;;10.97;100.00;102023.66;4118659;28;20087;-72
2021/12/12 04:27:24;;;;;;;11.75;4.05;;;11.70;99.90;;;11.01;100.00;102016.31;4118714;28;20027;-72
2021/12/12 04:29:33;;;;;;;6.07;2.90;;;11.70;99.90;;;11.02;100.00;102018.81;4103896;29;20039;-72
2021/12/12 04:31:39;;;;;;;9.73;2.75;;;11.70;99.90;;;11.00;100.00;102015.47;4118415;28;20125;-72
2021/12/12 04:33:40;;;;;;;8.75;2.83;;;11.70;99.90;;;11.01;100.00;102013.69;4103896;28;20043;-72
2021/12/12 04:35:41;;;;;;;8.45;2.72;;;11.70;99.90;;;10.97;100.00;102018.38;4103810;29;20066;-72
2021/12/12 04:37:44;;;;;;;8.60;3.58;;;11.70;99.90;;;10.97;100.00;102018.38;4118304;28;20027;-73
2021/12/12 04:39:50;;;;;;;7.53;3.15;;;11.60;99.90;;;10.98;100.00;102021.88;4118489;28;20027;-72
2021/12/12 04:41:59;;;;;;;13.40;3.20;;;11.70;99.90;;;10.96;100.00;102019.34;4118370;28;20023;-72
2021/12/12 04:44:01;;;;;;;12.63;3.70;;;11.70;99.90;;;10.97;100.00;102015.75;4118351;28;20118;-72
2021/12/12 04:46:21;;;;;;;12.30;3.90;;;11.60;99.90;;;11.01;100.00;102016.31;4118412;28;20023;-73
2021/12/12 04:51:13;;;;;;;14.48;3.88;;;11.60;99.90;;;11.05;100.00;102030.97;4105778;29;20399;-72
2021/12/12 04:53:31;;;;;;;16.65;4.40;;;11.60;99.90;;;11.03;100.00;102023.16;4121555;28;20033;-73
2021/12/12 04:55:35;;;;;;;13.27;4.15;;;11.60;99.90;;;11.02;100.00;102033.84;4102180;29;20078;-73
2021/12/12 04:57:48;;;;;;;7.75;3.75;;;11.60;99.90;;;10.96;100.00;102026.44;4106872;28;20042;-72
2021/12/12 05:00:02;;;;;;;17.77;5.75;;;11.60;99.90;;;10.99;100.00;102034.91;4121519;28;20126;-72
2021/12/12 05:02:40;;;;;;;14.90;5.20;;;11.60;99.90;;;10.92;100.00;102039.06;4120887;28;20073;-72
2021/12/12 05:05:11;;;;;;;11.50;3.97;;;11.60;99.90;;;10.93;100.00;102032.78;4120302;28;20101;-73
2021/12/12 05:07:21;;;;;;;10.95;3.97;;;11.60;99.90;;;10.92;100.00;102039.06;4105202;29;20036;-73
2021/12/12 05:09:54;;;;;;;17.02;5.50;;;11.60;99.90;;;10.89;100.00;102035.81;4137478;28;20109;-72
2021/12/12 05:12:03;;;;;;;16.02;5.03;;;11.60;99.90;;;10.90;100.00;102048.88;4118728;28;20038;-73
2021/12/12 05:14:12;;;;;;;14.40;4.30;;;11.60;99.90;;;10.95;100.00;102044.09;4105355;28;20038;-73
2021/12/12 05:16:22;;;;;;;12.48;4.40;;;11.60;99.90;;;10.97;100.00;102046.59;4121359;28;20482;-73
2021/12/12 05:18:33;;;;;;;14.38;4.30;;;11.60;99.90;;;10.93;100.00;102046.00;4120827;28;20409;-73
2021/12/12 05:20:47;;;;;;;11.63;4.60;;;10.70;99.90;;;10.92;100.00;102046.97;4121173;28;20030;-73
2021/12/12 05:22:53;;;;;;;10.90;4.25;;;11.60;99.90;;;10.94;100.00;102050.31;4106227;29;20110;-73
2021/12/12 05:24:55;;;;;;;11.27;4.95;;;11.60;99.90;;;11.05;100.00;102050.25;4121274;28;20057;-73
2021/12/12 05:27:14;;;;;;;10.80;4.50;;;11.70;99.90;;;11.04;100.00;102053.88;4121397;28;20082;-73
2021/12/12 05:29:49;;;;;;;14.45;4.60;;;11.70;99.90;;;11.01;100.00;102063.84;4106456;29;20051;-73
2021/12/12 05:31:56;;;;;;;8.45;3.85;;;11.70;99.90;;;10.96;100.00;102058.13;4120283;28;20442;-73
2021/12/12 05:33:57;;;;;;;15.10;4.78;;;11.70;99.90;;;11.07;100.00;102061.56;4121006;28;20507;-73
2021/12/12 05:35:59;;;;;;;13.95;3.58;;;11.70;99.90;;;10.98;100.00;102064.09;4106333;28;20067;-72
2021/12/12 05:38:01;;;;;;;13.95;4.63;;;11.70;99.90;;;11.03;100.00;102067.19;4120659;28;20066;-72
2021/12/12 05:40:09;;;;;;;12.45;4.15;;;11.60;99.90;;;11.05;100.00;102065.28;4121057;28;20050;-73
2021/12/12 05:42:13;;;;;;;13.10;3.90;;;11.70;99.90;;;11.07;100.00;102064.19;4120422;28;20628;-73
2021/12/12 05:44:18;;;;;;;12.75;4.32;;;11.70;99.90;;;11.02;100.00;102066.34;4120397;28;20110;-73
2021/12/12 05:46:20;;;;;;;7.80;4.20;;;11.70;99.90;;;11.02;100.00;102063.72;4120860;28;20031;-73
2021/12/12 05:48:22;;;;;;;8.60;3.55;;;11.70;99.90;;;11.05;100.00;102071.38;4120817;28;20051;-73
2021/12/12 05:50:25;;;;;;;12.40;4.93;;;11.70;99.90;;;11.11;100.00;102076.16;4120860;28;20109;-73
2021/12/12 05:52:27;;;;;;;14.60;4.50;;;11.70;99.90;;;11.06;100.00;102073.06;4133037;28;20030;-73
2021/12/12 05:54:29;;;;;;;7.95;3.63;;;11.70;99.90;;;11.01;100.00;102075.25;4120714;28;20046;-73
2021/12/12 05:56:35;;;;;;;16.10;4.38;;;11.70;99.90;;;11.09;100.00;102075.47;4106017;28;20118;-73
2021/12/12 05:58:37;;;;;;;19.23;4.40;;;11.60;99.90;;;11.05;100.00;102087.22;4120555;28;20510;-73
2021/12/12 06:00:57;;;;;;;13.27;4.35;;;11.70;99.90;;;11.09;100.00;102093.09;4133871;28;20375;-73
2021/12/12 06:02:59;;;;;;;20.80;4.80;;;11.70;99.90;;;11.02;100.00;102074.28;4119458;28;20026;-73
2021/12/12 06:05:00;;;;;;;22.30;4.95;;;11.70;99.90;;;11.13;100.00;102083.13;4120624;28;20081;-73
2021/12/12 06:07:05;;;;;;;16.15;5.13;;;11.70;99.90;;;11.17;100.00;102077.44;4120367;28;20090;-73
2021/12/12 06:09:10;;;;;;;12.02;4.05;;;11.60;99.90;;;11.16;100.00;102088.16;4095591;28;20047;-73
2021/12/12 06:11:14;;;;;;;19.02;5.15;;;11.70;99.90;;;11.00;100.00;102073.56;4105796;28;20023;-73
2021/12/12 06:13:17;;;;;;;17.17;4.20;;;11.60;99.90;;;10.96;100.00;102087.16;4120489;28;20092;-73
2021/12/12 06:15:23;;;;;;;17.75;5.35;;;11.60;99.90;;;10.80;100.00;102078.81;4105614;29;20042;-73
2021/12/12 06:17:25;;;;;;;15.73;4.00;;;11.50;99.90;;;10.86;100.00;102087.06;4105782;28;20035;-73
2021/12/12 06:19:30;;;;;;;9.32;3.85;;;11.50;99.90;;;10.87;100.00;102088.72;4120386;28;20042;-73
2021/12/12 06:21:31;;;;;;;10.57;4.38;;;11.50;99.90;;;10.84;100.00;102094.25;4119488;28;20047;-73
2021/12/12 06:23:32;;;;;;;13.93;4.53;;;11.50;99.90;;;10.97;100.00;102089.66;4104271;29;20034;-73
2021/12/12 06:25:33;;;;;;;16.35;5.35;;;11.50;99.90;;;10.94;100.00;102092.56;4120466;28;20095;-73
2021/12/12 06:27:36;;;;;;;11.77;4.00;;;11.50;99.90;;;10.91;100.00;102089.31;4104239;28;20031;-72
2021/12/12 06:29:37;;;;;;;9.57;3.35;;;11.60;99.90;;;10.87;100.00;102096.66;4120278;28;20110;-73
2021/12/12 06:31:44;;;;;;;12.32;3.80;;;11.50;99.90;;;10.91;100.00;102092.81;4120200;28;20063;-73
2021/12/12 06:33:46;;;;;;;14.52;4.05;;;11.50;99.90;;;10.89;100.00;102089.47;4119972;28;20026;-73
2021/12/12 06:35:49;;;;;;;15.18;4.28;;;11.60;99.90;;;10.95;100.00;102096.88;4104044;29;20039;-73
2021/12/12 06:37:50;;;;;;;9.45;4.25;;;11.60;99.90;;;11.05;100.00;102095.16;4119643;28;20038;-73
2021/12/12 06:39:54;;;;;;;11.27;4.10;;;11.50;99.90;;;11.01;100.00;102090.25;4119861;28;20030;-73
2021/12/12 06:41:55;;;;;;;15.70;4.13;;;11.60;99.90;;;10.89;100.00;102092.09;4126415;28;20031;-73
2021/12/12 06:43:57;;;;;;;13.38;4.60;;;11.50;99.90;;;10.97;100.00;102094.94;4105111;28;20031;-73
2021/12/12 06:45:59;;;;;;;8.43;3.40;;;11.50;99.90;;;10.97;100.00;102100.22;4119911;28;20019;-73
2021/12/12 06:48:05;;;;;;;15.73;3.90;;;11.60;99.90;;;10.91;100.00;102094.59;4120020;28;20031;-73
2021/12/12 06:50:08;;;;;;;9.18;3.25;;;11.50;99.90;;;10.87;100.00;102095.84;4119904;28;20154;-73
2021/12/12 06:52:12;;;;;;;12.88;3.13;;;11.50;99.90;;;10.82;100.00;102096.19;4119581;28;20034;-73
2021/12/12 06:54:17;;;;;;;12.40;3.13;;;11.50;99.90;;;10.86;100.00;102102.91;4119470;28;20039;-73
2021/12/12 06:56:20;;;;;;;10.68;3.10;;;11.50;99.90;;;10.77;100.00;102103.66;4119782;28;20034;-73
2021/12/12 06:58:24;;;;;;;12.63;3.78;;;11.50;99.90;;;10.82;100.00;102100.63;4119689;28;20042;-72
2021/12/12 07:00:26;;;;;;;;;;;11.50;99.90;;;10.91;100.00;102106.00;4119990;28;20030;-73
2021/12/12 07:02:28;;;;;;;7.85;2.70;;;11.50;99.90;;;10.91;100.00;102100.72;4104822;28;19950;-72
2021/12/12 07:04:31;;;;;;;10.75;2.92;;;11.50;99.90;;;10.89;100.00;102107.94;4119674;28;20059;-73
2021/12/12 07:06:34;;;;;;;8.18;3.00;;;11.60;99.90;;;10.87;100.00;102107.22;4119471;28;20046;-73
2021/12/12 07:08:36;;;;;;;8.25;2.90;;;11.40;99.90;;;10.81;100.00;102112.97;4119455;28;20050;-73
2021/12/12 07:10:37;;;;;;;11.38;3.17;;;11.40;99.90;;;10.77;100.00;102108.09;4119383;28;20027;-73
2021/12/12 07:12:40;;;;;;;6.35;2.50;;;11.40;99.90;;;10.75;100.00;102110.03;4119326;28;20561;-73
2021/12/12 07:14:42;;;;;;;10.38;3.22;;;11.40;99.90;;;10.80;100.00;102108.69;4119432;28;20105;-73
2021/12/12 07:16:45;;;;;;;9.38;2.60;;;11.40;99.90;;;10.86;100.00;102124.03;4119530;28;20027;-73
2021/12/12 07:18:47;;;;;;;13.68;4.10;;;11.40;99.90;;;10.82;100.00;102121.75;4104509;28;20399;-73
2021/12/12 07:20:52;;;;;;;11.45;3.35;;;11.40;99.90;;;10.75;100.00;102116.13;4119589;28;20061;-73
2021/12/12 07:22:54;;;;;;;9.55;2.50;;;11.30;99.90;;;10.77;100.00;102124.78;4118981;28;20034;-73
2021/12/12 07:24:55;;;;;;;10.13;2.63;;;11.30;99.90;;;10.77;100.00;102113.38;4119436;28;20023;-73
2021/12/12 07:26:58;;;;;;;9.15;3.28;;;11.30;99.90;;;10.78;100.00;102121.16;4119467;28;20085;-73
2021/12/12 07:29:00;;;;;;;7.15;2.67;;;11.30;99.90;;;10.78;100.00;102115.06;4119228;28;20438;-73
2021/12/12 07:31:13;;;;;;;6.80;2.80;;;11.30;99.90;;;10.81;100.00;102115.63;4119380;28;20034;-73
2021/12/12 07:33:14;;;;;;;7.22;3.17;;;11.40;99.90;;;10.76;100.00;102123.09;4118654;28;20027;-73
2021/12/12 07:35:16;;;;;;;8.13;3.28;;;11.40;99.90;;;10.79;100.00;102124.63;4119405;28;20026;-73
2021/12/12 07:37:17;;;;;;;10.88;2.70;;;11.30;99.90;;;10.73;100.00;102120.69;4104130;28;20030;-73
2021/12/12 07:39:22;;;;;;;9.45;2.97;;;11.30;99.90;;;10.75;100.00;102124.03;4119232;28;20505;-73
2021/12/12 07:41:27;;;;;;;7.57;2.90;;;11.40;99.90;;;10.83;100.00;102129.56;4118919;28;20019;-73
2021/12/12 07:43:30;;;;;;;7.78;3.10;;;11.30;99.90;;;10.78;100.00;102126.44;4103088;29;20126;-73
2021/12/12 07:45:32;;;;;;;6.20;2.42;;;11.30;99.90;;;10.81;100.00;102141.22;4104313;28;20098;-73
2021/12/12 07:47:34;;;;;;;5.57;2.15;;;11.40;99.90;;;10.69;100.00;102127.19;4104175;28;20035;-73
2021/12/12 07:49:44;;;;;;;5.03;2.40;;;11.30;99.90;;;10.69;100.00;102132.47;4104154;28;20027;-73
2021/12/12 07:51:46;;;;;;;11.48;3.35;;;11.30;99.90;;;10.68;100.00;102133.44;4104221;28;20098;-73
2021/12/12 07:53:52;;;;;;;6.65;2.80;;;11.30;99.90;;;10.77;100.00;102139.75;4119059;28;20030;-73
2021/12/12 07:55:55;;;;;;;4.85;2.22;;;11.30;99.90;;;10.74;100.00;102140.84;4118532;28;20469;-73
2021/12/12 07:57:56;;;;;;;7.70;2.80;;;11.30;99.90;;;10.74;100.00;102140.84;4119000;28;20062;-73
2021/12/12 08:00:00;;;;;;;5.72;2.45;;;11.30;99.90;;;10.69;100.00;102139.56;4118996;28;20758;-73
2021/12/12 08:02:02;;;;;;;4.25;3.20;;;11.30;99.90;;;10.67;100.00;102139.66;4118904;28;20041;-73
2021/12/12 08:04:04;;;;;;;9.45;5.03;;;11.30;99.90;;;10.70;100.00;102144.69;4118708;28;20118;-73
2021/12/12 08:06:07;;;;;;;22.38;13.80;;;11.30;99.90;;;10.67;100.00;102139.66;4119011;28;20251;-73
2021/12/12 08:08:13;;;;;;;13.55;6.95;;;11.30;99.90;;;10.66;100.00;102137.16;4102212;28;20027;-73
2021/12/12 08:10:17;;;;;;;14.52;10.13;;;11.30;99.90;;;10.71;100.00;102137.63;4118588;28;20165;-73
2021/12/12 08:12:24;;;;;;;8.38;7.53;;;11.30;99.90;;;10.63;100.00;102126.84;4103954;28;20038;-73
2021/12/12 08:14:27;;;;;;;7.95;3.40;;;11.30;99.90;;;10.62;100.00;102125.16;4117953;28;20031;-73
2021/12/12 08:16:28;;;;;;;6.78;3.67;;;11.30;99.90;;;10.71;100.00;102135.81;4102711;29;20027;-73
2021/12/12 08:18:30;;;;;;;11.32;4.10;;;11.30;99.90;;;10.66;100.00;102130.09;4118607;28;20031;-74
2021/12/12 08:20:32;;;;;;;9.85;2.83;;;11.30;99.90;;;10.66;100.00;102134.50;4118064;28;20154;-74
2021/12/12 08:22:34;;;;;;;7.70;3.58;;;11.30;99.90;;;10.69;100.00;102137.75;4101671;28;20031;-73
2021/12/12 08:24:37;;;;;;;7.13;3.80;;;11.30;99.90;;;10.74;100.00;102134.72;4118219;28;20066;-73
2021/12/12 08:26:43;;;;;;;15.13;8.02;;;11.40;99.90;;;10.74;100.00;102140.84;4102617;29;20090;-73
2021/12/12 08:28:44;;;;;;;11.48;8.10;;;11.30;99.90;;;10.73;100.00;102143.59;4118449;28;20041;-74
2021/12/12 08:30:46;;;;;;;11.65;7.57;;;11.40;99.90;;;10.77;100.00;102145.88;4118181;28;20030;-74
2021/12/12 08:32:50;;;;;;;11.07;6.57;;;11.40;99.90;;;10.79;100.00;102149.22;4102429;29;20031;-73
2021/12/12 08:34:52;;;;;;;11.63;7.18;;;11.40;99.90;;;10.80;100.00;102150.91;4118420;28;20057;-73
2021/12/12 08:36:55;;;;;;;9.05;8.13;;;11.40;99.90;;;10.86;100.00;102150.44;4118370;28;20398;-73
2021/12/12 08:38:56;;;;;;;9.85;6.97;;;11.50;99.90;;;10.82;100.00;102151.63;4102405;28;20024;-73
2021/12/12 08:41:03;;;;;;;7.97;5.47;;;11.40;99.90;;;10.78;100.00;102149.38;4118539;28;20049;-74
2021/12/12 08:43:09;;;;;;;6.13;2.97;;;11.40;99.90;;;10.82;100.00;102156.91;4118296;28;20054;-73
2021/12/12 08:45:15;;;;;;;6.95;5.28;;;11.50;99.90;;;10.97;100.00;102160.94;4118082;28;20248;-73
2021/12/12 08:47:16;;;;;;;10.98;4.90;;;11.50;99.90;;;11.03;100.00;102162.25;4102394;28;20028;-74
2021/12/12 08:49:21;;;;;;;10.77;4.90;;;11.60;99.90;;;11.08;100.00;102162.72;4102444;29;20587;-74
2021/12/12 08:51:34;;;;;;;9.48;4.22;;;11.60;99.90;;;11.09;100.00;102173.16;4103469;28;20103;-74
2021/12/12 08:53:36;;;;;;;11.25;5.32;;;11.70;99.90;;;11.02;100.00;102174.63;4103690;28;20438;-73